sensor_id;sensor_type;location;lat;lon;timestamp;P1;durP1;ratioP1;P2;durP2;ratioP2
22026;SDS011;11177;50.966;10.070;2023-04-25T00:02:07;11.88;;;6.47;;
22026;SDS011;11177;50.966;10.070;2023-04-25T00:04:35;8.80;;;6.05;;
22026;SDS011;11177;50.966;10.070;2023-04-25T00:07:05;8.13;;;5.82;;
22026;SDS011;11177;50.966;10.070;2023-04-25T00:09:32;9.75;;;5.95;;
22026;SDS011;11177;50.966;10.070;2023-04-25T00:11:58;10.48;;;6.00;;
22026;SDS011;11177;50.966;10.070;2023-04-25T00:14:25;12.73;;;6.28;;
22026;SDS011;11177;50.966;10.070;2023-04-25T00:16:54;12.60;;;6.30;;
22026;SDS011;11177;50.966;10.070;2023-04-25T00:19:21;13.10;;;6.05;;
22026;SDS011;11177;50.966;10.070;2023-04-25T00:21:48;9.48;;;6.22;;
22026;SDS011;11177;50.966;10.070;2023-04-25T00:24:15;9.25;;;5.90;;
22026;SDS011;11177;50.966;10.070;2023-04-25T00:26:42;7.63;;;5.38;;
22026;SDS011;11177;50.966;10.070;2023-04-25T00:29:09;11.25;;;6.07;;
22026;SDS011;11177;50.966;10.070;2023-04-25T00:31:39;10.05;;;6.22;;
22026;SDS011;11177;50.966;10.070;2023-04-25T00:34:06;9.50;;;6.90;;
22026;SDS011;11177;50.966;10.070;2023-04-25T00:36:34;11.05;;;6.55;;
22026;SDS011;11177;50.966;10.070;2023-04-25T00:39:01;9.80;;;6.90;;
22026;SDS011;11177;50.966;10.070;2023-04-25T00:41:29;11.60;;;7.32;;
22026;SDS011;11177;50.966;10.070;2023-04-25T00:43:57;10.38;;;7.30;;
22026;SDS011;11177;50.966;10.070;2023-04-25T00:46:24;11.35;;;7.10;;
22026;SDS011;11177;50.966;10.070;2023-04-25T00:48:51;12.60;;;7.28;;
22026;SDS011;11177;50.966;10.070;2023-04-25T00:51:19;11.52;;;7.28;;
22026;SDS011;11177;50.966;10.070;2023-04-25T00:53:47;11.13;;;7.20;;
22026;SDS011;11177;50.966;10.070;2023-04-25T00:56:17;10.98;;;7.25;;
22026;SDS011;11177;50.966;10.070;2023-04-25T00:58:44;11.10;;;7.25;;
22026;SDS011;11177;50.966;10.070;2023-04-25T01:01:11;13.75;;;7.20;;
22026;SDS011;11177;50.966;10.070;2023-04-25T01:03:38;12.90;;;8.25;;
22026;SDS011;11177;50.966;10.070;2023-04-25T01:06:09;14.25;;;7.70;;
22026;SDS011;11177;50.966;10.070;2023-04-25T01:08:37;10.80;;;6.82;;
22026;SDS011;11177;50.966;10.070;2023-04-25T01:11:05;11.60;;;7.68;;
22026;SDS011;11177;50.966;10.070;2023-04-25T01:13:32;12.52;;;7.22;;
22026;SDS011;11177;50.966;10.070;2023-04-25T01:16:00;11.60;;;7.45;;
22026;SDS011;11177;50.966;10.070;2023-04-25T01:18:27;9.82;;;6.80;;
22026;SDS011;11177;50.966;10.070;2023-04-25T01:24:23;11.63;;;7.07;;
22026;SDS011;11177;50.966;10.070;2023-04-25T01:26:50;11.52;;;7.18;;
22026;SDS011;11177;50.966;10.070;2023-04-25T01:29:17;12.52;;;7.50;;
22026;SDS011;11177;50.966;10.070;2023-04-25T01:31:45;12.15;;;7.32;;
22026;SDS011;11177;50.966;10.070;2023-04-25T01:34:12;13.02;;;7.28;;
22026;SDS011;11177;50.966;10.070;2023-04-25T01:36:39;12.35;;;7.30;;
22026;SDS011;11177;50.966;10.070;2023-04-25T01:39:07;11.02;;;7.07;;
22026;SDS011;11177;50.966;10.070;2023-04-25T01:41:34;11.90;;;6.82;;
22026;SDS011;11177;50.966;10.070;2023-04-25T01:44:01;9.85;;;7.10;;
22026;SDS011;11177;50.966;10.070;2023-04-25T01:46:28;10.90;;;7.30;;
22026;SDS011;11177;50.966;10.070;2023-04-25T01:48:57;11.90;;;6.40;;
22026;SDS011;11177;50.966;10.070;2023-04-25T01:51:24;10.48;;;6.05;;
22026;SDS011;11177;50.966;10.070;2023-04-25T01:53:51;8.48;;;5.65;;
22026;SDS011;11177;50.966;10.070;2023-04-25T01:56:18;10.43;;;5.53;;
22026;SDS011;11177;50.966;10.070;2023-04-25T01:58:45;8.05;;;5.15;;
22026;SDS011;11177;50.966;10.070;2023-04-25T02:01:12;7.63;;;5.38;;
22026;SDS011;11177;50.966;10.070;2023-04-25T02:03:39;7.93;;;5.22;;
22026;SDS011;11177;50.966;10.070;2023-04-25T02:06:06;10.32;;;5.43;;
22026;SDS011;11177;50.966;10.070;2023-04-25T02:08:33;10.30;;;6.18;;
22026;SDS011;11177;50.966;10.070;2023-04-25T02:11:00;10.27;;;7.03;;
22026;SDS011;11177;50.966;10.070;2023-04-25T02:13:27;14.05;;;7.47;;
22026;SDS011;11177;50.966;10.070;2023-04-25T02:15:54;10.57;;;6.75;;
22026;SDS011;11177;50.966;10.070;2023-04-25T02:18:21;11.52;;;7.20;;
22026;SDS011;11177;50.966;10.070;2023-04-25T02:20:48;14.73;;;7.38;;
22026;SDS011;11177;50.966;10.070;2023-04-25T02:23:15;10.70;;;7.38;;
22026;SDS011;11177;50.966;10.070;2023-04-25T02:25:41;14.35;;;7.30;;
22026;SDS011;11177;50.966;10.070;2023-04-25T02:28:09;10.63;;;6.88;;
22026;SDS011;11177;50.966;10.070;2023-04-25T02:30:35;11.23;;;6.82;;
22026;SDS011;11177;50.966;10.070;2023-04-25T02:33:02;10.23;;;7.10;;
22026;SDS011;11177;50.966;10.070;2023-04-25T02:35:29;8.48;;;6.57;;
22026;SDS011;11177;50.966;10.070;2023-04-25T02:37:56;11.38;;;6.80;;
22026;SDS011;11177;50.966;10.070;2023-04-25T02:40:23;12.60;;;6.88;;
22026;SDS011;11177;50.966;10.070;2023-04-25T02:42:50;10.90;;;6.25;;
22026;SDS011;11177;50.966;10.070;2023-04-25T02:45:18;12.57;;;6.80;;
22026;SDS011;11177;50.966;10.070;2023-04-25T02:47:44;13.95;;;7.15;;
22026;SDS011;11177;50.966;10.070;2023-04-25T02:50:11;11.07;;;7.82;;
22026;SDS011;11177;50.966;10.070;2023-04-25T02:52:38;12.63;;;7.43;;
22026;SDS011;11177;50.966;10.070;2023-04-25T02:55:05;10.82;;;7.05;;
22026;SDS011;11177;50.966;10.070;2023-04-25T02:57:32;15.65;;;7.05;;
22026;SDS011;11177;50.966;10.070;2023-04-25T02:59:59;10.27;;;6.82;;
22026;SDS011;11177;50.966;10.070;2023-04-25T03:02:26;12.63;;;6.57;;
22026;SDS011;11177;50.966;10.070;2023-04-25T03:04:53;10.23;;;6.93;;
22026;SDS011;11177;50.966;10.070;2023-04-25T03:07:20;8.93;;;6.38;;
22026;SDS011;11177;50.966;10.070;2023-04-25T03:09:47;10.45;;;7.22;;
22026;SDS011;11177;50.966;10.070;2023-04-25T03:12:15;9.90;;;6.45;;
22026;SDS011;11177;50.966;10.070;2023-04-25T03:14:42;8.93;;;6.18;;
22026;SDS011;11177;50.966;10.070;2023-04-25T03:17:09;11.10;;;6.95;;
22026;SDS011;11177;50.966;10.070;2023-04-25T03:19:36;11.25;;;6.32;;
22026;SDS011;11177;50.966;10.070;2023-04-25T03:22:03;11.30;;;6.45;;
22026;SDS011;11177;50.966;10.070;2023-04-25T03:24:30;13.95;;;6.60;;
22026;SDS011;11177;50.966;10.070;2023-04-25T03:26:57;8.27;;;6.03;;
22026;SDS011;11177;50.966;10.070;2023-04-25T03:29:23;9.55;;;6.60;;
22026;SDS011;11177;50.966;10.070;2023-04-25T03:31:52;8.90;;;6.25;;
22026;SDS011;11177;50.966;10.070;2023-04-25T03:34:19;12.32;;;7.05;;
22026;SDS011;11177;50.966;10.070;2023-04-25T03:36:47;10.68;;;6.72;;
22026;SDS011;11177;50.966;10.070;2023-04-25T03:39:14;11.45;;;7.25;;
22026;SDS011;11177;50.966;10.070;2023-04-25T03:41:41;13.40;;;7.63;;
22026;SDS011;11177;50.966;10.070;2023-04-25T03:44:08;10.63;;;7.22;;
22026;SDS011;11177;50.966;10.070;2023-04-25T03:46:35;15.52;;;8.60;;
22026;SDS011;11177;50.966;10.070;2023-04-25T03:49:02;15.90;;;9.00;;
22026;SDS011;11177;50.966;10.070;2023-04-25T03:51:29;12.95;;;7.53;;
22026;SDS011;11177;50.966;10.070;2023-04-25T03:53:57;12.70;;;7.40;;
22026;SDS011;11177;50.966;10.070;2023-04-25T03:56:25;11.38;;;6.65;;
22026;SDS011;11177;50.966;10.070;2023-04-25T03:58:51;12.48;;;7.20;;
22026;SDS011;11177;50.966;10.070;2023-04-25T04:01:19;9.50;;;6.35;;
22026;SDS011;11177;50.966;10.070;2023-04-25T04:03:47;8.48;;;6.53;;
22026;SDS011;11177;50.966;10.070;2023-04-25T04:06:14;11.90;;;6.70;;
22026;SDS011;11177;50.966;10.070;2023-04-25T04:08:41;10.65;;;7.05;;
22026;SDS011;11177;50.966;10.070;2023-04-25T04:11:08;9.48;;;6.35;;
22026;SDS011;11177;50.966;10.070;2023-04-25T04:13:35;10.07;;;6.57;;
22026;SDS011;11177;50.966;10.070;2023-04-25T04:16:02;9.40;;;6.30;;
22026;SDS011;11177;50.966;10.070;2023-04-25T04:18:30;9.73;;;6.15;;
22026;SDS011;11177;50.966;10.070;2023-04-25T04:20:57;13.27;;;6.55;;
22026;SDS011;11177;50.966;10.070;2023-04-25T04:23:25;11.25;;;6.32;;
22026;SDS011;11177;50.966;10.070;2023-04-25T04:25:55;9.85;;;6.30;;
22026;SDS011;11177;50.966;10.070;2023-04-25T04:28:23;15.52;;;6.00;;
22026;SDS011;11177;50.966;10.070;2023-04-25T04:30:50;7.93;;;5.55;;
22026;SDS011;11177;50.966;10.070;2023-04-25T04:33:17;10.50;;;6.32;;
22026;SDS011;11177;50.966;10.070;2023-04-25T04:35:47;11.27;;;6.15;;
22026;SDS011;11177;50.966;10.070;2023-04-25T04:38:15;9.32;;;5.90;;
22026;SDS011;11177;50.966;10.070;2023-04-25T04:40:42;10.73;;;6.32;;
22026;SDS011;11177;50.966;10.070;2023-04-25T04:43:09;9.43;;;6.13;;
22026;SDS011;11177;50.966;10.070;2023-04-25T04:45:37;13.07;;;6.85;;
22026;SDS011;11177;50.966;10.070;2023-04-25T04:48:07;8.90;;;5.10;;
22026;SDS011;11177;50.966;10.070;2023-04-25T04:50:33;7.25;;;4.80;;
22026;SDS011;11177;50.966;10.070;2023-04-25T04:53:02;8.77;;;5.10;;
22026;SDS011;11177;50.966;10.070;2023-04-25T04:55:30;8.95;;;4.75;;
22026;SDS011;11177;50.966;10.070;2023-04-25T04:57:57;9.27;;;6.07;;
22026;SDS011;11177;50.966;10.070;2023-04-25T05:00:24;8.27;;;5.90;;
22026;SDS011;11177;50.966;10.070;2023-04-25T05:02:55;10.18;;;6.28;;
22026;SDS011;11177;50.966;10.070;2023-04-25T05:05:22;10.93;;;6.28;;
22026;SDS011;11177;50.966;10.070;2023-04-25T05:07:49;12.38;;;6.68;;
22026;SDS011;11177;50.966;10.070;2023-04-25T05:10:17;10.13;;;6.68;;
22026;SDS011;11177;50.966;10.070;2023-04-25T05:12:44;11.35;;;6.60;;
22026;SDS011;11177;50.966;10.070;2023-04-25T05:15:11;13.90;;;7.88;;
22026;SDS011;11177;50.966;10.070;2023-04-25T05:17:38;12.38;;;7.60;;
22026;SDS011;11177;50.966;10.070;2023-04-25T05:20:06;14.23;;;7.32;;
22026;SDS011;11177;50.966;10.070;2023-04-25T05:22:35;12.23;;;7.20;;
22026;SDS011;11177;50.966;10.070;2023-04-25T05:25:02;11.98;;;7.75;;
22026;SDS011;11177;50.966;10.070;2023-04-25T05:27:30;11.52;;;7.55;;
22026;SDS011;11177;50.966;10.070;2023-04-25T05:29:57;15.07;;;7.22;;
22026;SDS011;11177;50.966;10.070;2023-04-25T05:32:23;13.98;;;7.60;;
22026;SDS011;11177;50.966;10.070;2023-04-25T05:34:51;10.77;;;7.30;;
22026;SDS011;11177;50.966;10.070;2023-04-25T05:37:19;14.80;;;7.50;;
22026;SDS011;11177;50.966;10.070;2023-04-25T05:39:46;11.43;;;7.82;;
22026;SDS011;11177;50.966;10.070;2023-04-25T05:42:12;13.10;;;7.93;;
22026;SDS011;11177;50.966;10.070;2023-04-25T05:44:39;12.52;;;7.88;;
22026;SDS011;11177;50.966;10.070;2023-04-25T05:47:06;13.82;;;8.10;;
22026;SDS011;11177;50.966;10.070;2023-04-25T05:49:33;16.00;;;8.02;;
22026;SDS011;11177;50.966;10.070;2023-04-25T05:52:01;22.17;;;12.27;;
22026;SDS011;11177;50.966;10.070;2023-04-25T05:54:28;15.50;;;9.07;;
22026;SDS011;11177;50.966;10.070;2023-04-25T05:56:58;15.73;;;9.15;;
22026;SDS011;11177;50.966;10.070;2023-04-25T05:59:28;15.23;;;8.60;;
22026;SDS011;11177;50.966;10.070;2023-04-25T06:01:56;12.88;;;8.05;;
22026;SDS011;11177;50.966;10.070;2023-04-25T06:04:24;16.55;;;8.85;;
22026;SDS011;11177;50.966;10.070;2023-04-25T06:06:52;13.73;;;8.48;;
22026;SDS011;11177;50.966;10.070;2023-04-25T06:09:19;15.50;;;8.65;;
22026;SDS011;11177;50.966;10.070;2023-04-25T06:11:47;14.15;;;8.65;;
22026;SDS011;11177;50.966;10.070;2023-04-25T06:14:14;16.30;;;8.77;;
22026;SDS011;11177;50.966;10.070;2023-04-25T06:16:41;16.67;;;8.02;;
22026;SDS011;11177;50.966;10.070;2023-04-25T06:19:07;16.15;;;8.40;;
22026;SDS011;11177;50.966;10.070;2023-04-25T06:21:34;14.65;;;7.30;;
22026;SDS011;11177;50.966;10.070;2023-04-25T06:24:02;10.77;;;5.57;;
22026;SDS011;11177;50.966;10.070;2023-04-25T06:26:30;10.57;;;5.07;;
22026;SDS011;11177;50.966;10.070;2023-04-25T06:28:58;10.40;;;5.22;;
22026;SDS011;11177;50.966;10.070;2023-04-25T06:31:25;13.32;;;5.47;;
22026;SDS011;11177;50.966;10.070;2023-04-25T06:33:52;11.07;;;5.38;;
22026;SDS011;11177;50.966;10.070;2023-04-25T06:36:21;10.63;;;5.00;;
22026;SDS011;11177;50.966;10.070;2023-04-25T06:38:52;9.65;;;4.70;;
22026;SDS011;11177;50.966;10.070;2023-04-25T06:41:19;8.95;;;5.00;;
22026;SDS011;11177;50.966;10.070;2023-04-25T06:43:47;9.43;;;4.38;;
22026;SDS011;11177;50.966;10.070;2023-04-25T06:46:14;8.18;;;4.55;;
22026;SDS011;11177;50.966;10.070;2023-04-25T06:48:41;7.70;;;4.50;;
22026;SDS011;11177;50.966;10.070;2023-04-25T06:51:08;8.23;;;4.97;;
22026;SDS011;11177;50.966;10.070;2023-04-25T06:53:34;8.02;;;4.28;;
22026;SDS011;11177;50.966;10.070;2023-04-25T06:56:02;10.65;;;4.50;;
22026;SDS011;11177;50.966;10.070;2023-04-25T06:58:29;8.25;;;4.20;;
22026;SDS011;11177;50.966;10.070;2023-04-25T07:00:57;7.28;;;4.25;;
22026;SDS011;11177;50.966;10.070;2023-04-25T07:03:24;7.75;;;4.63;;
22026;SDS011;11177;50.966;10.070;2023-04-25T07:05:51;5.40;;;4.25;;
22026;SDS011;11177;50.966;10.070;2023-04-25T07:08:18;8.02;;;4.28;;
22026;SDS011;11177;50.966;10.070;2023-04-25T07:10:46;8.40;;;4.45;;
22026;SDS011;11177;50.966;10.070;2023-04-25T07:13:15;9.90;;;4.82;;
22026;SDS011;11177;50.966;10.070;2023-04-25T07:15:41;7.93;;;4.38;;
22026;SDS011;11177;50.966;10.070;2023-04-25T07:18:10;10.75;;;5.03;;
22026;SDS011;11177;50.966;10.070;2023-04-25T07:20:38;7.13;;;4.35;;
22026;SDS011;11177;50.966;10.070;2023-04-25T07:23:05;8.68;;;4.57;;
22026;SDS011;11177;50.966;10.070;2023-04-25T07:25:32;8.90;;;4.43;;
22026;SDS011;11177;50.966;10.070;2023-04-25T07:27:59;6.50;;;4.30;;
22026;SDS011;11177;50.966;10.070;2023-04-25T07:30:26;7.57;;;4.50;;
22026;SDS011;11177;50.966;10.070;2023-04-25T07:32:53;6.13;;;3.90;;
22026;SDS011;11177;50.966;10.070;2023-04-25T07:35:21;5.90;;;4.13;;
22026;SDS011;11177;50.966;10.070;2023-04-25T07:37:48;9.07;;;4.60;;
22026;SDS011;11177;50.966;10.070;2023-04-25T07:40:14;8.02;;;4.63;;
22026;SDS011;11177;50.966;10.070;2023-04-25T07:42:42;8.23;;;4.13;;
22026;SDS011;11177;50.966;10.070;2023-04-25T07:45:09;5.57;;;3.70;;
22026;SDS011;11177;50.966;10.070;2023-04-25T07:47:37;6.70;;;3.90;;
22026;SDS011;11177;50.966;10.070;2023-04-25T07:50:05;7.30;;;4.05;;
22026;SDS011;11177;50.966;10.070;2023-04-25T07:52:33;8.57;;;4.05;;
22026;SDS011;11177;50.966;10.070;2023-04-25T07:55:00;6.13;;;4.00;;
22026;SDS011;11177;50.966;10.070;2023-04-25T07:57:27;6.50;;;4.28;;
22026;SDS011;11177;50.966;10.070;2023-04-25T07:59:54;5.53;;;3.95;;
22026;SDS011;11177;50.966;10.070;2023-04-25T08:02:20;7.05;;;3.78;;
22026;SDS011;11177;50.966;10.070;2023-04-25T08:04:47;6.50;;;3.60;;
22026;SDS011;11177;50.966;10.070;2023-04-25T08:07:16;4.63;;;3.13;;
22026;SDS011;11177;50.966;10.070;2023-04-25T08:09:43;4.40;;;2.70;;
22026;SDS011;11177;50.966;10.070;2023-04-25T08:12:10;3.92;;;2.28;;
22026;SDS011;11177;50.966;10.070;2023-04-25T08:14:37;3.13;;;2.25;;
22026;SDS011;11177;50.966;10.070;2023-04-25T08:17:06;4.63;;;2.15;;
22026;SDS011;11177;50.966;10.070;2023-04-25T08:19:33;4.25;;;1.95;;
22026;SDS011;11177;50.966;10.070;2023-04-25T08:21:59;3.15;;;1.70;;
22026;SDS011;11177;50.966;10.070;2023-04-25T08:24:27;3.25;;;1.80;;
22026;SDS011;11177;50.966;10.070;2023-04-25T08:26:54;4.70;;;2.03;;
22026;SDS011;11177;50.966;10.070;2023-04-25T08:29:22;8.73;;;2.50;;
22026;SDS011;11177;50.966;10.070;2023-04-25T08:31:50;6.70;;;2.25;;
22026;SDS011;11177;50.966;10.070;2023-04-25T08:34:19;5.35;;;2.28;;
22026;SDS011;11177;50.966;10.070;2023-04-25T08:36:47;10.40;;;2.30;;
22026;SDS011;11177;50.966;10.070;2023-04-25T08:39:14;9.38;;;2.45;;
22026;SDS011;11177;50.966;10.070;2023-04-25T08:41:41;5.82;;;2.38;;
22026;SDS011;11177;50.966;10.070;2023-04-25T08:44:09;5.63;;;2.25;;
22026;SDS011;11177;50.966;10.070;2023-04-25T08:46:38;9.70;;;2.70;;
22026;SDS011;11177;50.966;10.070;2023-04-25T08:49:08;8.35;;;2.72;;
22026;SDS011;11177;50.966;10.070;2023-04-25T08:51:36;4.75;;;2.05;;
22026;SDS011;11177;50.966;10.070;2023-04-25T08:54:12;8.52;;;2.53;;
22026;SDS011;11177;50.966;10.070;2023-04-25T08:56:44;11.10;;;2.50;;
22026;SDS011;11177;50.966;10.070;2023-04-25T08:59:12;11.57;;;2.40;;
22026;SDS011;11177;50.966;10.070;2023-04-25T09:01:39;6.15;;;2.50;;
22026;SDS011;11177;50.966;10.070;2023-04-25T09:04:06;6.63;;;2.45;;
22026;SDS011;11177;50.966;10.070;2023-04-25T09:06:33;4.68;;;2.30;;
22026;SDS011;11177;50.966;10.070;2023-04-25T09:09:02;10.15;;;3.10;;
22026;SDS011;11177;50.966;10.070;2023-04-25T09:11:31;10.18;;;2.53;;
22026;SDS011;11177;50.966;10.070;2023-04-25T09:14:18;10.90;;;2.80;;
22026;SDS011;11177;50.966;10.070;2023-04-25T09:16:56;8.88;;;2.60;;
22026;SDS011;11177;50.966;10.070;2023-04-25T09:19:25;6.32;;;2.65;;
22026;SDS011;11177;50.966;10.070;2023-04-25T09:22:06;31.85;;;20.30;;
22026;SDS011;11177;50.966;10.070;2023-04-25T09:24:41;12.93;;;5.05;;
22026;SDS011;11177;50.966;10.070;2023-04-25T09:27:18;19.88;;;10.57;;
22026;SDS011;11177;50.966;10.070;2023-04-25T09:29:46;7.22;;;3.10;;
22026;SDS011;11177;50.966;10.070;2023-04-25T09:32:17;7.22;;;2.63;;
22026;SDS011;11177;50.966;10.070;2023-04-25T09:34:49;11.77;;;2.40;;
22026;SDS011;11177;50.966;10.070;2023-04-25T09:37:23;5.10;;;2.50;;
22026;SDS011;11177;50.966;10.070;2023-04-25T09:39:54;6.70;;;2.42;;
22026;SDS011;11177;50.966;10.070;2023-04-25T09:42:32;6.15;;;2.65;;
22026;SDS011;11177;50.966;10.070;2023-04-25T09:45:01;9.07;;;2.72;;
22026;SDS011;11177;50.966;10.070;2023-04-25T09:47:28;6.30;;;2.60;;
22026;SDS011;11177;50.966;10.070;2023-04-25T09:49:56;8.10;;;2.33;;
22026;SDS011;11177;50.966;10.070;2023-04-25T09:52:23;7.05;;;2.30;;
22026;SDS011;11177;50.966;10.070;2023-04-25T09:54:52;8.10;;;2.72;;
22026;SDS011;11177;50.966;10.070;2023-04-25T09:57:21;7.80;;;2.58;;
22026;SDS011;11177;50.966;10.070;2023-04-25T09:59:50;8.60;;;2.65;;
22026;SDS011;11177;50.966;10.070;2023-04-25T10:02:19;7.43;;;2.53;;
22026;SDS011;11177;50.966;10.070;2023-04-25T10:04:48;8.63;;;2.50;;
22026;SDS011;11177;50.966;10.070;2023-04-25T10:07:20;8.63;;;2.60;;
22026;SDS011;11177;50.966;10.070;2023-04-25T10:09:58;4.93;;;2.50;;
22026;SDS011;11177;50.966;10.070;2023-04-25T10:12:28;7.90;;;2.17;;
22026;SDS011;11177;50.966;10.070;2023-04-25T10:14:55;6.90;;;2.00;;
22026;SDS011;11177;50.966;10.070;2023-04-25T10:17:23;6.07;;;2.10;;
22026;SDS011;11177;50.966;10.070;2023-04-25T10:19:51;8.27;;;2.00;;
22026;SDS011;11177;50.966;10.070;2023-04-25T10:22:32;5.97;;;1.95;;
22026;SDS011;11177;50.966;10.070;2023-04-25T10:25:01;7.88;;;2.35;;
22026;SDS011;11177;50.966;10.070;2023-04-25T10:27:30;6.22;;;2.08;;
22026;SDS011;11177;50.966;10.070;2023-04-25T10:30:02;9.20;;;2.30;;
22026;SDS011;11177;50.966;10.070;2023-04-25T10:32:49;10.15;;;2.45;;
22026;SDS011;11177;50.966;10.070;2023-04-25T10:35:19;6.97;;;2.28;;
22026;SDS011;11177;50.966;10.070;2023-04-25T10:41:02;6.97;;;2.20;;
22026;SDS011;11177;50.966;10.070;2023-04-25T10:43:34;5.03;;;1.75;;
22026;SDS011;11177;50.966;10.070;2023-04-25T10:46:24;5.90;;;2.30;;
22026;SDS011;11177;50.966;10.070;2023-04-25T10:51:23;5.55;;;1.85;;
22026;SDS011;11177;50.966;10.070;2023-04-25T10:56:37;6.07;;;2.10;;
22026;SDS011;11177;50.966;10.070;2023-04-25T10:59:11;7.97;;;2.08;;
22026;SDS011;11177;50.966;10.070;2023-04-25T11:01:40;8.02;;;2.08;;
22026;SDS011;11177;50.966;10.070;2023-04-25T11:04:30;7.95;;;2.05;;
22026;SDS011;11177;50.966;10.070;2023-04-25T11:07:19;10.00;;;2.50;;
22026;SDS011;11177;50.966;10.070;2023-04-25T11:10:05;9.95;;;2.40;;
22026;SDS011;11177;50.966;10.070;2023-04-25T11:12:32;8.63;;;2.20;;
22026;SDS011;11177;50.966;10.070;2023-04-25T11:15:03;4.75;;;2.15;;
22026;SDS011;11177;50.966;10.070;2023-04-25T11:17:31;6.93;;;1.90;;
22026;SDS011;11177;50.966;10.070;2023-04-25T11:20:00;8.40;;;2.42;;
22026;SDS011;11177;50.966;10.070;2023-04-25T11:22:27;6.68;;;2.38;;
22026;SDS011;11177;50.966;10.070;2023-04-25T11:24:54;6.28;;;2.15;;
22026;SDS011;11177;50.966;10.070;2023-04-25T11:27:21;8.68;;;2.38;;
22026;SDS011;11177;50.966;10.070;2023-04-25T11:29:49;8.65;;;2.30;;
22026;SDS011;11177;50.966;10.070;2023-04-25T11:32:17;8.30;;;2.40;;
22026;SDS011;11177;50.966;10.070;2023-04-25T11:34:47;9.55;;;2.22;;
22026;SDS011;11177;50.966;10.070;2023-04-25T11:37:14;12.57;;;2.40;;
22026;SDS011;11177;50.966;10.070;2023-04-25T11:39:44;8.13;;;2.40;;
22026;SDS011;11177;50.966;10.070;2023-04-25T11:42:15;8.55;;;2.38;;
22026;SDS011;11177;50.966;10.070;2023-04-25T11:44:44;8.50;;;2.30;;
22026;SDS011;11177;50.966;10.070;2023-04-25T11:47:11;5.65;;;2.65;;
22026;SDS011;11177;50.966;10.070;2023-04-25T11:49:38;10.52;;;2.40;;
22026;SDS011;11177;50.966;10.070;2023-04-25T11:52:06;10.35;;;2.35;;
22026;SDS011;11177;50.966;10.070;2023-04-25T11:54:37;7.47;;;2.33;;
22026;SDS011;11177;50.966;10.070;2023-04-25T11:57:04;9.68;;;2.53;;
22026;SDS011;11177;50.966;10.070;2023-04-25T11:59:31;9.82;;;2.70;;
22026;SDS011;11177;50.966;10.070;2023-04-25T12:01:58;10.25;;;2.08;;
22026;SDS011;11177;50.966;10.070;2023-04-25T12:04:29;8.05;;;1.85;;
22026;SDS011;11177;50.966;10.070;2023-04-25T12:06:57;6.95;;;2.28;;
22026;SDS011;11177;50.966;10.070;2023-04-25T12:09:28;8.18;;;2.25;;
22026;SDS011;11177;50.966;10.070;2023-04-25T12:11:56;7.75;;;2.00;;
22026;SDS011;11177;50.966;10.070;2023-04-25T12:14:32;6.88;;;2.05;;
22026;SDS011;11177;50.966;10.070;2023-04-25T12:17:01;5.53;;;1.75;;
22026;SDS011;11177;50.966;10.070;2023-04-25T12:19:33;3.50;;;1.70;;
22026;SDS011;11177;50.966;10.070;2023-04-25T12:22:08;6.40;;;1.70;;
22026;SDS011;11177;50.966;10.070;2023-04-25T12:24:46;7.30;;;1.90;;
22026;SDS011;11177;50.966;10.070;2023-04-25T12:27:14;7.25;;;2.08;;
22026;SDS011;11177;50.966;10.070;2023-04-25T12:29:55;4.35;;;1.70;;
22026;SDS011;11177;50.966;10.070;2023-04-25T12:32:23;6.90;;;1.80;;
22026;SDS011;11177;50.966;10.070;2023-04-25T12:34:50;7.40;;;1.70;;
22026;SDS011;11177;50.966;10.070;2023-04-25T12:37:17;5.35;;;1.77;;
22026;SDS011;11177;50.966;10.070;2023-04-25T12:39:44;7.35;;;1.98;;
22026;SDS011;11177;50.966;10.070;2023-04-25T12:42:12;6.38;;;1.77;;
22026;SDS011;11177;50.966;10.070;2023-04-25T12:44:39;5.78;;;1.77;;
22026;SDS011;11177;50.966;10.070;2023-04-25T12:47:06;7.40;;;1.88;;
22026;SDS011;11177;50.966;10.070;2023-04-25T12:49:34;5.25;;;1.80;;
22026;SDS011;11177;50.966;10.070;2023-04-25T12:52:01;5.47;;;1.58;;
22026;SDS011;11177;50.966;10.070;2023-04-25T12:54:28;4.78;;;1.80;;
22026;SDS011;11177;50.966;10.070;2023-04-25T12:56:54;6.72;;;1.60;;
22026;SDS011;11177;50.966;10.070;2023-04-25T12:59:21;2.38;;;1.40;;
22026;SDS011;11177;50.966;10.070;2023-04-25T13:01:48;2.75;;;1.45;;
22026;SDS011;11177;50.966;10.070;2023-04-25T13:04:15;4.00;;;1.70;;
22026;SDS011;11177;50.966;10.070;2023-04-25T13:06:43;5.13;;;1.38;;
22026;SDS011;11177;50.966;10.070;2023-04-25T13:09:10;6.43;;;1.40;;
22026;SDS011;11177;50.966;10.070;2023-04-25T13:11:39;4.13;;;1.48;;
22026;SDS011;11177;50.966;10.070;2023-04-25T13:14:07;7.75;;;1.70;;
22026;SDS011;11177;50.966;10.070;2023-04-25T13:16:34;6.13;;;1.40;;
22026;SDS011;11177;50.966;10.070;2023-04-25T13:19:02;3.22;;;1.45;;
22026;SDS011;11177;50.966;10.070;2023-04-25T13:21:29;5.90;;;1.55;;
22026;SDS011;11177;50.966;10.070;2023-04-25T13:23:58;4.60;;;1.50;;
22026;SDS011;11177;50.966;10.070;2023-04-25T13:26:26;6.28;;;1.50;;
22026;SDS011;11177;50.966;10.070;2023-04-25T13:28:53;7.88;;;2.08;;
22026;SDS011;11177;50.966;10.070;2023-04-25T13:31:20;6.32;;;1.38;;
22026;SDS011;11177;50.966;10.070;2023-04-25T13:33:47;5.30;;;1.65;;
22026;SDS011;11177;50.966;10.070;2023-04-25T13:36:15;4.43;;;1.30;;
22026;SDS011;11177;50.966;10.070;2023-04-25T13:38:42;6.15;;;1.58;;
22026;SDS011;11177;50.966;10.070;2023-04-25T13:41:10;4.65;;;1.30;;
22026;SDS011;11177;50.966;10.070;2023-04-25T13:43:42;5.40;;;1.40;;
22026;SDS011;11177;50.966;10.070;2023-04-25T13:46:09;2.53;;;1.15;;
22026;SDS011;11177;50.966;10.070;2023-04-25T13:48:56;3.60;;;1.50;;
22026;SDS011;11177;50.966;10.070;2023-04-25T13:51:35;4.35;;;1.40;;
22026;SDS011;11177;50.966;10.070;2023-04-25T13:54:02;2.55;;;1.15;;
22026;SDS011;11177;50.966;10.070;2023-04-25T13:56:29;5.13;;;1.10;;
22026;SDS011;11177;50.966;10.070;2023-04-25T13:58:56;5.13;;;1.77;;
22026;SDS011;11177;50.966;10.070;2023-04-25T14:01:23;2.13;;;1.25;;
22026;SDS011;11177;50.966;10.070;2023-04-25T14:03:50;3.63;;;1.27;;
22026;SDS011;11177;50.966;10.070;2023-04-25T14:06:17;4.30;;;1.33;;
22026;SDS011;11177;50.966;10.070;2023-04-25T14:08:49;4.68;;;1.40;;
22026;SDS011;11177;50.966;10.070;2023-04-25T14:11:16;4.93;;;1.70;;
22026;SDS011;11177;50.966;10.070;2023-04-25T14:13:45;3.05;;;1.60;;
22026;SDS011;11177;50.966;10.070;2023-04-25T14:16:12;3.13;;;1.40;;
22026;SDS011;11177;50.966;10.070;2023-04-25T14:18:39;2.88;;;1.35;;
22026;SDS011;11177;50.966;10.070;2023-04-25T14:21:05;4.35;;;1.13;;
22026;SDS011;11177;50.966;10.070;2023-04-25T14:23:32;6.65;;;1.63;;
22026;SDS011;11177;50.966;10.070;2023-04-25T14:25:59;5.85;;;1.52;;
22026;SDS011;11177;50.966;10.070;2023-04-25T14:28:26;5.00;;;1.63;;
22026;SDS011;11177;50.966;10.070;2023-04-25T14:30:52;5.28;;;1.70;;
22026;SDS011;11177;50.966;10.070;2023-04-25T14:33:19;3.08;;;1.38;;
22026;SDS011;11177;50.966;10.070;2023-04-25T14:35:46;7.25;;;1.50;;
22026;SDS011;11177;50.966;10.070;2023-04-25T14:38:16;5.78;;;1.70;;
22026;SDS011;11177;50.966;10.070;2023-04-25T14:40:43;4.18;;;1.75;;
22026;SDS011;11177;50.966;10.070;2023-04-25T14:43:10;3.53;;;1.60;;
22026;SDS011;11177;50.966;10.070;2023-04-25T14:45:37;2.58;;;1.30;;
22026;SDS011;11177;50.966;10.070;2023-04-25T14:48:04;4.45;;;1.40;;